Fay, OK (73646)

2:46 AM CDT on August 01, 2014 (GMT -0500)
Watonga (KJWG) Elev 1549 ft | 35.86 °N, 98.42 °W | Change Station

Current weather conditions updated 11 minutes ago

Clear
Clear
63 °F
Feels Like 63 °F
N
0
Wind Variable Wind from North

Today is forecast to be Much Warmer than yesterday.

Today
High -- | Low -- °F
--% Chance of Precip.
Yesterday
High -- | Low -- °F
Precip. -- in
6:42 AM 8:39 PM
Waxing Crescent, 24% visible
Pressure 30.12 in
Visibility 7.0 miles
Clouds Clear
Dew Point 63 °F
Humidity 100%
Rainfall 0.00 in
Snow Depth Not available.
UV 0 out of 12
Pollen 2.30 out of 12
Air Quality Not available.
Flu Activity Not available.
METAR KJWG 010735Z AUTO 00000KT 7SM CLR 17/17 A3012 RMK AO2 T01700170

More Conditions Fewer Conditions

Pressure 30.12 in
Visibility 7.0 miles
Clouds Clear
Dew Point 63 °F
Humidity 100%
Rainfall 0.00 in
Snow Depth Not available.
UV 0 out of 12
Pollen 2.30 out of 12
Air Quality Not available.
Flu Activity Not available.
METAR KJWG 010735Z AUTO 00000KT 7SM CLR 17/17 A3012 RMK AO2 T01700170

More Conditions Fewer Conditions

10-Day Weather Forecast

Almanac

Astronomy

Aug. 01, 2014 Rise Set
Actual Time 6:42 AM CDT 8:39 PM CDT
Civil Twilight 6:14 AM CDT 9:07 PM CDT
Nautical Twilight 5:40 AM CDT 9:41 PM CDT
Astronomical Twilight 5:03 AM CDT 10:17 PM CDT
Moon 11:55 AM CDT 11:37 PM CDT
Length of Visible Light 14h 52m
Length of Day
13h 56m
Tomorrow will be 1m 42s shorter.
Waxing Crescent, 24% of the Moon is Illuminated
Today
Waxing Crescent
Aug 3
First Quarter
Aug 10
Full
Aug 17
Last Quarter
Aug 25
New

Today's Extremes

State Highs State Lows

Community

WunderPhotos

Upload Photos

1,739,522 photos uploaded!

Nearby

Snow Depth

Station Depth Elevation
No new snow has been reported.

Earthquake Activity

City Distance Mag. Time & Date
Yale, Oklahoma 105 miles 3.2 5:19 PM CDT
2014-07-27
Medford, Oklahoma 81 miles 2.9 3:39 PM CDT
2014-07-27
Perry, Oklahoma 74 miles 2.8 4:28 AM CDT
2014-07-27
Caldwell, Kansas 100 miles 3.4 5:57 AM CDT
2014-07-26
Minimum magnitude displayed is 2.5.

Coastal Water Temperatures

Place Temperature
No Stations Reporting

Nearby Weather Stations

Station Location Temp. Dew Point Humidity Wind Precip. Elev Updated Type
Watonga North, Watonga, OK 64.6 °F 64 °F 97% SE  at  0.0 mph 0.00 in / hr 1549 ft 11:59 PM CDT Rapid Fire
The MadCatter Canton Oklahoma, Canton, OK 62.6 °F 60 °F 93% SSW  at  1.7 mph - / hr 1654 ft 2:39 AM CDT Normal
Custer City, Custer City, OK 64.9 °F 62 °F 91% ENE  at  0.0 mph 0.00 in / hr 1775 ft 2:46 AM CDT Rapid Fire
HADS NORTH CANADIAN RIVER AT DAM NEAR OK, Canton, OK 66 °F 63 °F 91% SE  at  1 mph 0.00 in / hr 1649 ft 2:00 AM CDT MADIS

Show More Stations Show Fewer Stations